Time;durP1;ratioP1;P1;durP2;ratioP2;P2;SDS_P1;SDS_P2;PMS_P1;PMS_P2;Temp;Humidity;BMP_temperature;BMP_pressure;BME280_temperature;BME280_humidity;BME280_pressure;Samples;Min_cycle;Max_cycle;Signal;HPM_P1;HPM_P2
2022/04/17 00:00:31;;;;;;;5.50;3.55;;;;;;;;;;5023643;28;20576;-43
2022/04/17 00:02:57;;;;;;;5.53;3.50;;;;;;;;;;5024615;28;20028;-37
2022/04/17 00:05:23;;;;;;;5.15;2.95;;;;;;;;;;5023316;28;20183;-41
2022/04/17 00:07:49;;;;;;;8.40;4.70;;;;;;;;;;5023401;28;20058;-40
2022/04/17 00:10:16;;;;;;;5.60;3.45;;;;;;;;;;5022603;28;20040;-37
2022/04/17 00:12:43;;;;;;;6.63;4.10;;;;;;;;;;5023448;28;20025;-42
2022/04/17 00:15:10;;;;;;;7.07;4.28;;;;;;;;;;5023314;28;20063;-41
2022/04/17 00:17:42;;;;;;;7.00;3.88;;;;;;;;;;5023128;28;20025;-36
2022/04/17 00:20:09;;;;;;;6.85;4.15;;;;;;;;;;5023832;28;20520;-39
2022/04/17 00:22:39;;;;;;;5.93;3.60;;;;;;;;;;5023177;28;20100;-38
2022/04/17 00:25:07;;;;;;;7.32;4.57;;;;;;;;;;5022662;28;20079;-37
2022/04/17 00:27:33;;;;;;;6.20;3.67;;;;;;;;;;5022889;28;20025;-38
2022/04/17 00:29:59;;;;;;;5.72;3.38;;;;;;;;;;5023819;28;20527;-39
2022/04/17 00:32:25;;;;;;;7.25;3.50;;;;;;;;;;5022857;28;20378;-38
2022/04/17 00:34:51;;;;;;;10.68;5.95;;;;;;;;;;5023666;28;20028;-43
2022/04/17 00:37:17;;;;;;;6.82;3.30;;;;;;;;;;5022819;28;20036;-39
2022/04/17 00:39:46;;;;;;;6.03;3.22;;;;;;;;;;5022885;28;20017;-40
2022/04/17 00:42:12;;;;;;;4.50;3.20;;;;;;;;;;5022647;28;20057;-38
2022/04/17 00:44:38;;;;;;;5.57;3.10;;;;;;;;;;5022557;28;20022;-40
2022/04/17 00:47:05;;;;;;;5.18;3.33;;;;;;;;;;5022613;28;20055;-38
2022/04/17 00:49:34;;;;;;;4.88;3.05;;;;;;;;;;5022292;28;20076;-39
2022/04/17 00:52:04;;;;;;;7.30;3.33;;;;;;;;;;5023252;28;20025;-42
2022/04/17 00:54:30;;;;;;;10.25;4.60;;;;;;;;;;5022189;28;20023;-39
2022/04/17 00:56:57;;;;;;;7.68;4.25;;;;;;;;;;5023525;28;20482;-38
2022/04/17 00:59:24;;;;;;;9.98;4.70;;;;;;;;;;5023752;28;20025;-39
2022/04/17 01:01:50;;;;;;;6.70;2.75;;;;;;;;;;5022206;28;20022;-41
2022/04/17 01:04:16;;;;;;;5.85;3.05;;;;;;;;;;5022164;28;20033;-40
2022/04/17 01:06:42;;;;;;;5.60;3.58;;;;;;;;;;5042075;28;20491;-39
2022/04/17 01:09:08;;;;;;;11.77;3.65;;;;;;;;;;5074083;28;20036;-37
2022/04/17 01:11:38;;;;;;;4.00;2.60;;;;;;;;;;5073859;28;20040;-38
2022/04/17 01:14:05;;;;;;;4.60;2.78;;;;;;;;;;5074023;28;20032;-44
2022/04/17 01:16:31;;;;;;;7.00;3.88;;;;;;;;;;5073684;28;20085;-40
2022/04/17 01:19:03;;;;;;;5.78;3.65;;;;;;;;;;5073743;28;20063;-38
2022/04/17 01:21:32;;;;;;;7.75;3.20;;;;;;;;;;5073261;28;20040;-41
2022/04/17 01:26:58;;;;;;;6.75;3.75;;;;;;;;;;5074002;28;20158;-42
2022/04/17 01:29:30;;;;;;;5.78;3.35;;;;;;;;;;5073577;28;20480;-47
2022/04/17 01:31:56;;;;;;;6.05;3.45;;;;;;;;;;5073601;28;20033;-40
2022/04/17 01:34:23;;;;;;;4.82;3.08;;;;;;;;;;5073595;28;20461;-38
2022/04/17 01:36:50;;;;;;;3.83;2.10;;;;;;;;;;5073787;28;20031;-42
2022/04/17 01:39:18;;;;;;;5.13;3.10;;;;;;;;;;5073671;28;20020;-38
2022/04/17 01:41:44;;;;;;;3.92;2.33;;;;;;;;;;5073591;28;20041;-37
2022/04/17 01:44:10;;;;;;;5.18;3.25;;;;;;;;;;5073702;28;20028;-38
2022/04/17 01:46:36;;;;;;;4.72;2.80;;;;;;;;;;5073770;28;20029;-37
2022/04/17 01:49:06;;;;;;;3.97;2.42;;;;;;;;;;5073211;28;20048;-37
2022/04/17 01:51:39;;;;;;;3.35;2.15;;;;;;;;;;5073422;28;20115;-38
2022/04/17 01:54:08;;;;;;;6.18;2.80;;;;;;;;;;5073458;28;20448;-38
2022/04/17 01:56:35;;;;;;;4.88;2.78;;;;;;;;;;5073553;28;20468;-38
2022/04/17 01:59:01;;;;;;;4.10;2.60;;;;;;;;;;5073336;28;20056;-38
2022/04/17 02:01:27;;;;;;;5.97;2.60;;;;;;;;;;5073564;28;20403;-42
2022/04/17 02:03:56;;;;;;;3.95;2.53;;;;;;;;;;5073412;28;20067;-37
2022/04/17 02:06:22;;;;;;;3.97;2.50;;;;;;;;;;5073202;28;20024;-37
2022/04/17 02:08:51;;;;;;;6.25;3.33;;;;;;;;;;5073494;28;20031;-39
2022/04/17 02:11:17;;;;;;;4.38;2.83;;;;;;;;;;5073040;28;20044;-39
2022/04/17 02:13:43;;;;;;;5.28;3.20;;;;;;;;;;5073281;28;20029;-37
2022/04/17 02:16:09;;;;;;;5.25;3.10;;;;;;;;;;5073348;28;20029;-39
2022/04/17 02:18:35;;;;;;;4.47;2.50;;;;;;;;;;5073330;28;20025;-39
2022/04/17 02:21:02;;;;;;;4.95;2.63;;;;;;;;;;5072934;28;20056;-38
2022/04/17 02:23:28;;;;;;;4.78;2.90;;;;;;;;;;5073148;28;20025;-40
2022/04/17 02:25:54;;;;;;;3.90;2.67;;;;;;;;;;5072989;28;20506;-38
2022/04/17 02:28:20;;;;;;;3.83;2.53;;;;;;;;;;5072901;28;20163;-39
2022/04/17 02:30:46;;;;;;;4.82;2.70;;;;;;;;;;5073052;28;20032;-38
2022/04/17 02:33:13;;;;;;;5.47;2.70;;;;;;;;;;5073890;28;20024;-37
2022/04/17 02:35:39;;;;;;;4.07;2.60;;;;;;;;;;5077006;28;20036;-38
2022/04/17 02:38:05;;;;;;;3.88;2.70;;;;;;;;;;5076970;28;20101;-37
2022/04/17 02:40:31;;;;;;;6.05;2.70;;;;;;;;;;5076852;28;20025;-36
2022/04/17 02:42:59;;;;;;;3.38;2.22;;;;;;;;;;5076808;28;20025;-37
2022/04/17 02:45:25;;;;;;;3.65;2.60;;;;;;;;;;5076801;28;20023;-40
2022/04/17 02:47:52;;;;;;;5.95;2.50;;;;;;;;;;5076535;28;20079;-40
2022/04/17 02:50:19;;;;;;;2.65;2.20;;;;;;;;;;5076451;28;20480;-40
2022/04/17 02:52:45;;;;;;;3.78;2.50;;;;;;;;;;5076586;28;20020;-37
2022/04/17 02:55:11;;;;;;;4.30;2.20;;;;;;;;;;5076711;28;20032;-45
2022/04/17 02:57:38;;;;;;;4.40;2.90;;;;;;;;;;5076461;28;20025;-45
2022/04/17 03:00:07;;;;;;;4.75;3.78;;;;;;;;;;5076512;28;20119;-46
2022/04/17 03:05:38;;;;;;;4.00;2.60;;;;;;;;;;5076654;28;20605;-43
2022/04/17 03:08:11;;;;;;;4.22;2.30;;;;;;;;;;5076862;28;20025;-39
2022/04/17 03:10:40;;;;;;;3.45;2.97;;;;;;;;;;5076217;28;20052;-41
2022/04/17 03:13:07;;;;;;;4.63;2.67;;;;;;;;;;5076379;28;20023;-38
2022/04/17 03:15:34;;;;;;;3.63;2.47;;;;;;;;;;5076258;28;20383;-39
2022/04/17 03:18:00;;;;;;;4.38;2.58;;;;;;;;;;5076216;28;20052;-44
2022/04/17 03:20:27;;;;;;;4.15;2.60;;;;;;;;;;5076197;28;20024;-40
2022/04/17 03:22:55;;;;;;;3.63;2.33;;;;;;;;;;5076074;28;20020;-36
2022/04/17 03:25:26;;;;;;;4.05;2.88;;;;;;;;;;5076040;28;20058;-38
2022/04/17 03:27:53;;;;;;;5.13;2.78;;;;;;;;;;5076123;28;20100;-36
2022/04/17 03:30:19;;;;;;;2.35;2.08;;;;;;;;;;5075948;28;20036;-37
2022/04/17 03:32:47;;;;;;;3.63;2.53;;;;;;;;;;5075960;28;20028;-46
2022/04/17 03:35:14;;;;;;;17.33;4.97;;;;;;;;;;5075727;28;20380;-42
2022/04/17 03:37:43;;;;;;;13.43;6.78;;;;;;;;;;5075902;28;20036;-41
2022/04/17 03:40:13;;;;;;;16.58;6.57;;;;;;;;;;5076068;28;20016;-39
2022/04/17 03:42:40;;;;;;;18.50;9.25;;;;;;;;;;5075860;28;20032;-41
2022/04/17 03:45:07;;;;;;;16.58;8.35;;;;;;;;;;5075014;28;20060;-42
2022/04/17 03:47:34;;;;;;;88.00;42.17;;;;;;;;;;5075435;28;20103;-38
2022/04/17 03:50:00;;;;;;;88.05;42.97;;;;;;;;;;5075335;28;20024;-40
2022/04/17 03:52:29;;;;;;;41.58;22.38;;;;;;;;;;5075672;28;20024;-42
2022/04/17 03:54:56;;;;;;;27.45;13.65;;;;;;;;;;5075477;28;20024;-41
2022/04/17 03:57:22;;;;;;;43.80;21.95;;;;;;;;;;5075460;28;20040;-43
2022/04/17 03:59:48;;;;;;;9.90;4.90;;;;;;;;;;5075237;28;20029;-37
2022/04/17 04:02:14;;;;;;;6.25;4.03;;;;;;;;;;5075340;28;20055;-45
2022/04/17 04:04:40;;;;;;;7.10;4.03;;;;;;;;;;5075264;28;20028;-38
2022/04/17 04:07:06;;;;;;;5.85;3.30;;;;;;;;;;5075566;28;20016;-38
2022/04/17 04:09:35;;;;;;;15.90;5.60;;;;;;;;;;5075328;28;20473;-45
2022/04/17 04:12:01;;;;;;;20.27;8.07;;;;;;;;;;5075316;28;20028;-41
2022/04/17 04:14:27;;;;;;;16.42;7.00;;;;;;;;;;5068743;28;20108;-47
2022/04/17 04:16:53;;;;;;;14.52;6.13;;;;;;;;;;5054617;28;20377;-44
2022/04/17 04:19:19;;;;;;;17.00;5.82;;;;;;;;;;5054455;28;20079;-39
2022/04/17 04:21:48;;;;;;;15.43;5.88;;;;;;;;;;5054321;28;20552;-44
2022/04/17 04:24:15;;;;;;;15.77;7.03;;;;;;;;;;5054840;28;20086;-43
2022/04/17 04:26:42;;;;;;;8.70;3.95;;;;;;;;;;5054736;28;20025;-42
2022/04/17 04:29:08;;;;;;;12.70;6.82;;;;;;;;;;5054147;28;20033;-44
2022/04/17 04:31:34;;;;;;;19.17;5.35;;;;;;;;;;5054368;28;20437;-45
2022/04/17 04:34:00;;;;;;;12.20;3.85;;;;;;;;;;5054105;28;20021;-44
2022/04/17 04:36:26;;;;;;;4.78;2.97;;;;;;;;;;5054311;28;20021;-40
2022/04/17 04:38:55;;;;;;;9.27;3.80;;;;;;;;;;5054131;28;20016;-45
2022/04/17 04:41:22;;;;;;;6.45;3.28;;;;;;;;;;5053913;28;20067;-44
2022/04/17 04:43:48;;;;;;;5.78;3.28;;;;;;;;;;5054301;28;20067;-43
2022/04/17 04:46:14;;;;;;;6.05;3.45;;;;;;;;;;5054139;28;20028;-42
2022/04/17 04:51:27;;;;;;;11.15;2.90;;;;;;;;;;5051650;28;20068;-40
2022/04/17 04:53:55;;;;;;;7.57;2.95;;;;;;;;;;5054100;28;20044;-38
2022/04/17 04:56:21;;;;;;;6.45;2.25;;;;;;;;;;5053126;28;20025;-37
2022/04/17 04:58:47;;;;;;;3.28;2.50;;;;;;;;;;5053581;28;20575;-38
2022/04/17 05:01:14;;;;;;;6.78;3.13;;;;;;;;;;5053704;28;20036;-37
2022/04/17 05:03:41;;;;;;;4.05;2.30;;;;;;;;;;5053548;28;20017;-42
2022/04/17 05:06:10;;;;;;;3.53;2.15;;;;;;;;;;5053861;28;20036;-46
2022/04/17 05:08:36;;;;;;;5.57;2.28;;;;;;;;;;5053631;28;20416;-42
2022/04/17 05:11:05;;;;;;;3.60;2.22;;;;;;;;;;5053832;28;20048;-42
2022/04/17 05:13:31;;;;;;;3.75;2.40;;;;;;;;;;5053909;28;20365;-37
2022/04/17 05:15:57;;;;;;;3.00;2.35;;;;;;;;;;5053971;28;20031;-37
2022/04/17 05:18:23;;;;;;;5.65;3.22;;;;;;;;;;5052633;28;20461;-38
2022/04/17 05:20:49;;;;;;;3.90;2.53;;;;;;;;;;5053851;28;20029;-44
2022/04/17 05:23:17;;;;;;;4.80;2.85;;;;;;;;;;5053808;28;20078;-43
2022/04/17 05:25:49;;;;;;;4.32;2.50;;;;;;;;;;5053638;28;20079;-39
2022/04/17 05:28:15;;;;;;;4.38;2.30;;;;;;;;;;5053811;28;20056;-40
2022/04/17 05:30:42;;;;;;;3.75;2.17;;;;;;;;;;5053228;28;20041;-41
2022/04/17 05:33:08;;;;;;;3.83;2.80;;;;;;;;;;5053082;28;20120;-42
2022/04/17 05:35:34;;;;;;;3.13;2.13;;;;;;;;;;5053267;28;20021;-42
2022/04/17 05:38:01;;;;;;;5.03;2.22;;;;;;;;;;5053025;28;20577;-42
2022/04/17 05:40:27;;;;;;;3.17;1.95;;;;;;;;;;5053023;28;20035;-44
2022/04/17 05:42:53;;;;;;;7.80;7.15;;;;;;;;;;5053113;28;20047;-45
2022/04/17 05:45:19;;;;;;;3.90;2.20;;;;;;;;;;5053095;28;20104;-43
2022/04/17 05:47:45;;;;;;;20.58;3.17;;;;;;;;;;5051332;28;20515;-43
2022/04/17 05:50:11;;;;;;;3.83;2.03;;;;;;;;;;5053107;28;20107;-43
2022/04/17 05:52:37;;;;;;;3.97;2.38;;;;;;;;;;5053030;28;20052;-44
2022/04/17 05:55:04;;;;;;;9.73;5.85;;;;;;;;;;5052964;28;20029;-42
2022/04/17 05:57:30;;;;;;;13.80;10.63;;;;;;;;;;5052782;28;20534;-43
2022/04/17 05:59:56;;;;;;;24.08;13.98;;;;;;;;;;5052763;28;20032;-45
2022/04/17 06:02:22;;;;;;;15.98;6.25;;;;;;;;;;5052691;28;20075;-39
2022/04/17 06:04:48;;;;;;;7.75;5.13;;;;;;;;;;5052592;28;20480;-39
2022/04/17 06:07:24;;;;;;;5.18;3.63;;;;;;;;;;5052726;28;20033;-40
2022/04/17 06:09:50;;;;;;;4.97;2.88;;;;;;;;;;5049880;28;20104;-44
2022/04/17 06:12:17;;;;;;;8.10;3.70;;;;;;;;;;5052502;28;20029;-44
2022/04/17 06:14:44;;;;;;;5.68;3.28;;;;;;;;;;5052645;28;20016;-43
2022/04/17 06:17:13;;;;;;;4.28;2.65;;;;;;;;;;5049893;28;20385;-43
2022/04/17 06:19:39;;;;;;;4.97;3.05;;;;;;;;;;5052552;28;20016;-44
2022/04/17 06:22:06;;;;;;;7.57;4.57;;;;;;;;;;5052443;28;20029;-40
2022/04/17 06:24:32;;;;;;;6.53;4.50;;;;;;;;;;5051203;28;20036;-40
2022/04/17 06:26:58;;;;;;;5.22;3.33;;;;;;;;;;5052463;28;20548;-44
2022/04/17 06:29:25;;;;;;;4.85;3.00;;;;;;;;;;5051309;28;20073;-38
2022/04/17 06:31:51;;;;;;;10.27;3.80;;;;;;;;;;5052275;28;20435;-45
2022/04/17 06:34:17;;;;;;;11.20;2.67;;;;;;;;;;5052561;28;20087;-44
2022/04/17 06:36:43;;;;;;;5.20;3.65;;;;;;;;;;5052348;28;20060;-40
2022/04/17 06:39:09;;;;;;;6.32;3.25;;;;;;;;;;5052764;28;20017;-45
2022/04/17 06:41:35;;;;;;;8.38;3.70;;;;;;;;;;5052345;28;20021;-40
2022/04/17 06:44:01;;;;;;;6.78;3.58;;;;;;;;;;5052443;28;20452;-42
2022/04/17 06:46:27;;;;;;;7.85;3.35;;;;;;;;;;5052222;28;20021;-44
2022/04/17 06:48:54;;;;;;;6.43;3.35;;;;;;;;;;5052354;28;20045;-45
2022/04/17 06:51:23;;;;;;;4.13;2.80;;;;;;;;;;5052247;28;20029;-44
2022/04/17 06:53:50;;;;;;;4.28;2.58;;;;;;;;;;5049936;28;20025;-45
2022/04/17 06:56:18;;;;;;;3.83;2.28;;;;;;;;;;5052326;28;20036;-43
2022/04/17 06:58:47;;;;;;;4.30;2.28;;;;;;;;;;5052298;28;20069;-46
2022/04/17 07:01:16;;;;;;;6.90;2.90;;;;;;;;;;5052177;28;20029;-41
2022/04/17 07:03:42;;;;;;;6.05;2.92;;;;;;;;;;5052252;28;20088;-46
2022/04/17 07:06:09;;;;;;;10.10;3.83;;;;;;;;;;5052283;28;20064;-44
2022/04/17 07:08:37;;;;;;;4.88;2.50;;;;;;;;;;5052124;28;20021;-38
2022/04/17 07:11:04;;;;;;;5.28;2.10;;;;;;;;;;5052461;28;20048;-40
2022/04/17 07:13:30;;;;;;;4.82;2.60;;;;;;;;;;5049560;28;20029;-42
2022/04/17 07:15:56;;;;;;;7.25;2.30;;;;;;;;;;5052072;28;20028;-38
2022/04/17 07:18:22;;;;;;;13.07;6.35;;;;;;;;;;5052489;28;20024;-43
2022/04/17 07:20:49;;;;;;;22.00;8.55;;;;;;;;;;5054122;28;20025;-39
2022/04/17 07:23:18;;;;;;;12.15;6.35;;;;;;;;;;5056245;28;20491;-40
2022/04/17 07:25:44;;;;;;;12.43;5.95;;;;;;;;;;5056036;28;20473;-39
2022/04/17 07:28:14;;;;;;;18.42;8.00;;;;;;;;;;5056065;28;20111;-38
2022/04/17 07:30:40;;;;;;;24.40;12.48;;;;;;;;;;5055811;28;20060;-39
2022/04/17 07:33:06;;;;;;;13.88;7.45;;;;;;;;;;5055924;28;20071;-39
2022/04/17 07:35:33;;;;;;;11.98;6.50;;;;;;;;;;5056639;28;20447;-40
2022/04/17 07:38:00;;;;;;;18.85;7.25;;;;;;;;;;5055866;28;20025;-40
2022/04/17 07:40:33;;;;;;;12.07;6.95;;;;;;;;;;5055822;28;20113;-41
2022/04/17 07:43:00;;;;;;;16.75;5.63;;;;;;;;;;5055651;28;20036;-41
2022/04/17 07:45:31;;;;;;;6.88;3.60;;;;;;;;;;5055655;28;20108;-42
2022/04/17 07:47:57;;;;;;;17.73;8.48;;;;;;;;;;5055577;28;20048;-43
2022/04/17 07:50:25;;;;;;;19.20;9.73;;;;;;;;;;5055534;28;20023;-45
2022/04/17 07:52:52;;;;;;;14.20;5.05;;;;;;;;;;5055546;28;20022;-46
2022/04/17 07:55:18;;;;;;;8.23;4.38;;;;;;;;;;5055554;28;20017;-42
2022/04/17 07:58:06;;;;;;;10.52;5.38;;;;;;;;;;5055527;28;20025;-42
2022/04/17 08:00:37;;;;;;;7.00;3.65;;;;;;;;;;5055319;28;20112;-45
2022/04/17 08:03:07;;;;;;;15.65;5.35;;;;;;;;;;5055317;28;20021;-44
2022/04/17 08:05:39;;;;;;;7.00;3.65;;;;;;;;;;5055430;28;20049;-44
2022/04/17 08:08:09;;;;;;;29.25;13.23;;;;;;;;;;5053475;28;20067;-41
2022/04/17 08:10:36;;;;;;;22.33;10.85;;;;;;;;;;5054371;28;20067;-45
2022/04/17 08:13:02;;;;;;;18.88;8.50;;;;;;;;;;5054372;28;20021;-43
2022/04/17 08:15:28;;;;;;;19.63;12.10;;;;;;;;;;5054556;28;20017;-43
2022/04/17 08:17:54;;;;;;;13.30;6.50;;;;;;;;;;5055059;28;20036;-43
2022/04/17 08:20:21;;;;;;;55.78;28.05;;;;;;;;;;5054970;28;20044;-44
2022/04/17 08:22:47;;;;;;;10.98;5.82;;;;;;;;;;5054791;28;20025;-44
2022/04/17 08:25:13;;;;;;;7.00;2.30;;;;;;;;;;5026203;28;20056;-42
2022/04/17 08:28:06;;;;;;;6.75;2.70;;;;;;;;;;5023593;28;20415;-39
2022/04/17 08:30:33;;;;;;;5.20;2.08;;;;;;;;;;5021338;28;20056;-42
2022/04/17 08:33:00;;;;;;;3.83;2.20;;;;;;;;;;5023446;28;20025;-42
2022/04/17 08:35:28;;;;;;;3.75;2.45;;;;;;;;;;5022568;28;20532;-44
2022/04/17 08:37:57;;;;;;;4.25;1.80;;;;;;;;;;5022398;28;20420;-39
2022/04/17 08:40:27;;;;;;;4.47;2.20;;;;;;;;;;5022102;28;20426;-42
2022/04/17 08:42:53;;;;;;;6.57;1.42;;;;;;;;;;5022108;28;20100;-39
2022/04/17 08:45:19;;;;;;;5.50;2.00;;;;;;;;;;5023437;28;20130;-44
2022/04/17 08:47:45;;;;;;;4.03;2.10;;;;;;;;;;5021926;28;20478;-41
2022/04/17 08:50:15;;;;;;;6.40;2.13;;;;;;;;;;5023412;28;20764;-41
2022/04/17 08:52:42;;;;;;;5.38;2.13;;;;;;;;;;5022856;28;20036;-43
2022/04/17 08:55:09;;;;;;;4.45;2.67;;;;;;;;;;5021834;28;20032;-41
2022/04/17 08:57:35;;;;;;;6.53;3.53;;;;;;;;;;5022000;28;20061;-44
2022/04/17 09:00:03;;;;;;;10.45;3.65;;;;;;;;;;5021938;28;20030;-39
2022/04/17 09:02:29;;;;;;;9.32;2.78;;;;;;;;;;5022643;28;20520;-42
2022/04/17 09:04:56;;;;;;;19.45;6.28;;;;;;;;;;5021962;28;20029;-40
2022/04/17 09:07:22;;;;;;;10.98;5.40;;;;;;;;;;5021494;28;20036;-42
2022/04/17 09:09:52;;;;;;;15.98;8.15;;;;;;;;;;5021849;28;20083;-44
2022/04/17 09:12:18;;;;;;;12.60;6.90;;;;;;;;;;5021516;28;20144;-43
2022/04/17 09:14:44;;;;;;;9.73;5.05;;;;;;;;;;5021416;28;20072;-41
2022/04/17 09:17:11;;;;;;;8.68;3.00;;;;;;;;;;5021715;28;20033;-44
2022/04/17 09:19:37;;;;;;;14.75;3.92;;;;;;;;;;5021636;28;20022;-44
2022/04/17 09:22:05;;;;;;;19.85;7.30;;;;;;;;;;5021713;28;20025;-43
2022/04/17 09:24:35;;;;;;;20.30;11.75;;;;;;;;;;5019711;28;20056;-45
2022/04/17 09:27:01;;;;;;;11.20;4.70;;;;;;;;;;5021174;28;20033;-44
2022/04/17 09:29:27;;;;;;;7.35;4.38;;;;;;;;;;5022134;28;20040;-44
2022/04/17 09:31:57;;;;;;;9.75;4.35;;;;;;;;;;5022586;28;20043;-44
2022/04/17 09:34:23;;;;;;;11.60;2.20;;;;;;;;;;5021066;28;20024;-40
2022/04/17 09:36:59;;;;;;;5.15;3.28;;;;;;;;;;5021525;28;20141;-39
2022/04/17 09:39:32;;;;;;;8.73;2.70;;;;;;;;;;5021210;28;20030;-41
2022/04/17 09:42:01;;;;;;;3.00;2.10;;;;;;;;;;5022341;28;20099;-42
2022/04/17 09:44:38;;;;;;;4.18;2.63;;;;;;;;;;5020392;28;20419;-39
2022/04/17 09:47:09;;;;;;;3.85;2.40;;;;;;;;;;5021029;28;20444;-44
2022/04/17 09:49:52;;;;;;;7.18;2.30;;;;;;;;;;5021047;28;20045;-44
2022/04/17 09:52:18;;;;;;;6.53;2.40;;;;;;;;;;5021043;28;20084;-45
2022/04/17 09:54:47;;;;;;;4.30;1.95;;;;;;;;;;5021254;28;20030;-45
2022/04/17 09:57:18;;;;;;;5.90;3.22;;;;;;;;;;5020714;28;20112;-45
2022/04/17 09:59:44;;;;;;;9.85;2.10;;;;;;;;;;5021017;28;20030;-41
2022/04/17 10:02:14;;;;;;;7.55;2.22;;;;;;;;;;5021136;28;20411;-40
2022/04/17 10:04:45;;;;;;;8.35;2.42;;;;;;;;;;5021067;28;20358;-40
2022/04/17 10:07:14;;;;;;;17.38;4.50;;;;;;;;;;5022350;28;20033;-43
2022/04/17 10:09:42;;;;;;;4.70;2.90;;;;;;;;;;5020746;28;20025;-39
2022/04/17 10:12:11;;;;;;;6.03;2.47;;;;;;;;;;5020668;28;20092;-40
2022/04/17 10:14:37;;;;;;;4.43;2.47;;;;;;;;;;5022273;28;20450;-43
2022/04/17 10:17:07;;;;;;;6.93;2.30;;;;;;;;;;5020806;28;20036;-41
2022/04/17 10:19:34;;;;;;;7.68;2.30;;;;;;;;;;5020372;28;20032;-43
2022/04/17 10:22:03;;;;;;;7.70;2.42;;;;;;;;;;5020604;28;20082;-43
2022/04/17 10:24:29;;;;;;;4.70;2.47;;;;;;;;;;5020859;28;20025;-39
2022/04/17 10:26:55;;;;;;;7.53;1.75;;;;;;;;;;5020831;28;20025;-46
2022/04/17 10:29:25;;;;;;;3.45;1.95;;;;;;;;;;5020701;28;20026;-44
2022/04/17 10:31:54;;;;;;;5.97;2.13;;;;;;;;;;5020888;28;20037;-43
2022/04/17 10:34:51;;;;;;;9.30;2.15;;;;;;;;;;5020625;28;20469;-41
2022/04/17 10:37:20;;;;;;;5.55;2.10;;;;;;;;;;5014111;28;20096;-40
2022/04/17 10:39:51;;;;;;;13.23;2.22;;;;;;;;;;5020609;28;20655;-42
2022/04/17 10:42:17;;;;;;;9.45;2.03;;;;;;;;;;5021553;28;20078;-44
2022/04/17 10:44:45;;;;;;;4.93;1.50;;;;;;;;;;5020726;28;20036;-43
2022/04/17 10:47:20;;;;;;;8.30;1.83;;;;;;;;;;5020568;28;20076;-44
2022/04/17 10:49:53;;;;;;;5.45;2.25;;;;;;;;;;5021674;28;20052;-42
2022/04/17 10:52:29;;;;;;;5.05;2.55;;;;;;;;;;5020253;28;20033;-42
2022/04/17 10:54:57;;;;;;;7.43;2.15;;;;;;;;;;5022483;28;20162;-42
2022/04/17 10:57:24;;;;;;;12.77;2.72;;;;;;;;;;5024307;28;20564;-41
2022/04/17 10:59:50;;;;;;;4.22;1.85;;;;;;;;;;5024166;28;20029;-39
2022/04/17 11:02:19;;;;;;;6.82;2.70;;;;;;;;;;5024096;28;20029;-44
2022/04/17 11:04:53;;;;;;;2.10;1.45;;;;;;;;;;5024080;28;20052;-40
2022/04/17 11:07:23;;;;;;;3.35;1.85;;;;;;;;;;5035530;28;20429;-43
2022/04/17 11:10:04;;;;;;;10.40;2.13;;;;;;;;;;5023869;28;20053;-45
2022/04/17 11:12:30;;;;;;;7.80;2.30;;;;;;;;;;5023934;28;20080;-43
2022/04/17 11:15:03;;;;;;;5.53;2.03;;;;;;;;;;5023762;28;20017;-38
2022/04/17 11:17:30;;;;;;;2.70;1.70;;;;;;;;;;5025499;28;20021;-41
2022/04/17 11:19:57;;;;;;;3.72;1.88;;;;;;;;;;5024026;28;20021;-38
2022/04/17 11:22:27;;;;;;;10.35;2.25;;;;;;;;;;5024860;28;20095;-43
2022/04/17 11:25:01;;;;;;;3.58;2.30;;;;;;;;;;5023786;28;20031;-44
2022/04/17 11:27:45;;;;;;;2.17;1.80;;;;;;;;;;5023731;28;20068;-42
2022/04/17 11:30:17;;;;;;;4.50;1.55;;;;;;;;;;5022775;28;20053;-43
2022/04/17 11:32:43;;;;;;;5.38;1.58;;;;;;;;;;5023448;28;20516;-40
2022/04/17 11:35:12;;;;;;;3.40;2.08;;;;;;;;;;5023423;28;20109;-42
2022/04/17 11:37:39;;;;;;;2.72;1.70;;;;;;;;;;5024401;28;20152;-49
2022/04/17 11:40:09;;;;;;;5.30;2.20;;;;;;;;;;5023409;28;20421;-42
2022/04/17 11:42:41;;;;;;;5.93;3.00;;;;;;;;;;5023306;28;20034;-43
2022/04/17 11:45:07;;;;;;;5.75;3.28;;;;;;;;;;5023574;28;20061;-40
2022/04/17 11:47:38;;;;;;;3.80;1.90;;;;;;;;;;5024032;28;20026;-44
2022/04/17 11:50:06;;;;;;;3.43;1.60;;;;;;;;;;5023260;28;20104;-43
2022/04/17 11:52:32;;;;;;;3.20;1.95;;;;;;;;;;5023079;28;20044;-39
2022/04/17 11:55:00;;;;;;;3.33;2.17;;;;;;;;;;5023497;28;20136;-41
2022/04/17 11:57:26;;;;;;;8.05;2.72;;;;;;;;;;5022978;28;20029;-42
2022/04/17 11:59:54;;;;;;;4.53;2.38;;;;;;;;;;5023197;28;20582;-44
2022/04/17 12:02:21;;;;;;;4.65;2.28;;;;;;;;;;5023061;28;20331;-41
2022/04/17 12:04:48;;;;;;;6.22;3.65;;;;;;;;;;5024329;28;20618;-39
2022/04/17 12:07:15;;;;;;;8.57;4.32;;;;;;;;;;5022199;28;20071;-42
2022/04/17 12:09:41;;;;;;;6.85;3.65;;;;;;;;;;5022736;28;20033;-41
2022/04/17 12:12:14;;;;;;;9.63;2.85;;;;;;;;;;5022600;28;20048;-46
2022/04/17 12:14:43;;;;;;;4.60;2.67;;;;;;;;;;5022679;28;20481;-43
2022/04/17 12:17:09;;;;;;;10.60;2.95;;;;;;;;;;5024159;28;20037;-42
2022/04/17 12:19:35;;;;;;;6.93;3.80;;;;;;;;;;5022803;28;20021;-47
2022/04/17 12:22:14;;;;;;;4.82;2.67;;;;;;;;;;5022518;28;20343;-47
2022/04/17 12:24:44;;;;;;;6.30;2.15;;;;;;;;;;5023712;28;20027;-45
2022/04/17 12:27:14;;;;;;;5.75;3.60;;;;;;;;;;5022778;28;20022;-55
2022/04/17 12:29:41;;;;;;;4.72;3.17;;;;;;;;;;5026444;28;20087;-44
2022/04/17 12:32:17;;;;;;;7.38;2.45;;;;;;;;;;5023121;28;20037;-38
2022/04/17 12:34:46;;;;;;;5.82;2.55;;;;;;;;;;5023849;28;20370;-41
2022/04/17 12:37:22;;;;;;;6.07;2.45;;;;;;;;;;5022645;28;20331;-46
2022/04/17 12:39:48;;;;;;;6.72;2.63;;;;;;;;;;5022310;28;20362;-46
2022/04/17 12:42:20;;;;;;;4.10;1.77;;;;;;;;;;5023637;28;20025;-44
2022/04/17 12:44:47;;;;;;;6.03;2.00;;;;;;;;;;5022173;28;20124;-38
2022/04/17 12:47:17;;;;;;;8.27;3.25;;;;;;;;;;5022026;28;20034;-49
2022/04/17 12:49:43;;;;;;;5.35;2.72;;;;;;;;;;5022171;28;20044;-49
2022/04/17 12:52:20;;;;;;;4.03;1.98;;;;;;;;;;5021759;28;20043;-46
2022/04/17 12:54:46;;;;;;;3.95;1.75;;;;;;;;;;5021876;28;20489;-44
2022/04/17 12:57:13;;;;;;;3.03;2.20;;;;;;;;;;5022155;28;20033;-44
2022/04/17 12:59:43;;;;;;;7.03;2.97;;;;;;;;;;5021687;28;20071;-43
2022/04/17 13:02:15;;;;;;;5.55;2.47;;;;;;;;;;5021473;28;20021;-46
2022/04/17 13:04:45;;;;;;;6.55;2.53;;;;;;;;;;5021659;28;20013;-47
2022/04/17 13:07:13;;;;;;;4.20;1.85;;;;;;;;;;5021363;28;20167;-47
2022/04/17 13:09:56;;;;;;;7.30;2.88;;;;;;;;;;5022180;28;20014;-43
2022/04/17 13:12:46;;;;;;;5.65;2.70;;;;;;;;;;5022204;28;20359;-42
2022/04/17 13:15:12;;;;;;;;;;;;;;;;;;5023385;28;20064;-36
2022/04/17 13:17:48;;;;;;;9.73;3.40;;;;;;;;;;5021418;28;20774;-43
2022/04/17 13:20:16;;;;;;;5.65;3.17;;;;;;;;;;5023632;28;20051;-41
2022/04/17 13:22:42;;;;;;;29.77;16.52;;;;;;;;;;5020221;28;20778;-42
2022/04/17 13:25:11;;;;;;;21.95;13.45;;;;;;;;;;5022081;28;20022;-44
2022/04/17 13:27:37;;;;;;;12.75;7.72;;;;;;;;;;5021768;28;20037;-40
2022/04/17 13:30:07;;;;;;;13.77;7.15;;;;;;;;;;5021818;28;20037;-45
2022/04/17 13:32:33;;;;;;;11.07;6.18;;;;;;;;;;5021614;28;20132;-38
2022/04/17 13:34:59;;;;;;;12.98;5.95;;;;;;;;;;5021821;28;20045;-44
2022/04/17 13:40:10;;;;;;;15.23;4.68;;;;;;;;;;5022300;28;20064;-40
2022/04/17 13:42:38;;;;;;;8.80;3.03;;;;;;;;;;5021683;28;20029;-45
2022/04/17 13:45:05;;;;;;;8.32;2.83;;;;;;;;;;5022653;28;20025;-43
2022/04/17 13:47:31;;;;;;;13.43;2.05;;;;;;;;;;5022413;28;20021;-44
2022/04/17 13:49:58;;;;;;;15.57;2.30;;;;;;;;;;5021701;28;20045;-45
2022/04/17 13:52:25;;;;;;;5.80;1.83;;;;;;;;;;5021544;28;20033;-42
2022/04/17 13:54:53;;;;;;;2.97;1.50;;;;;;;;;;5021492;28;20418;-45
2022/04/17 13:57:23;;;;;;;6.38;2.50;;;;;;;;;;5021337;28;20071;-44
2022/04/17 13:59:49;;;;;;;7.28;2.28;;;;;;;;;;5022637;28;20499;-38
2022/04/17 14:02:16;;;;;;;16.90;10.05;;;;;;;;;;5021282;28;20030;-47
2022/04/17 14:04:42;;;;;;;14.38;7.93;;;;;;;;;;5023448;28;20022;-44
2022/04/17 14:07:09;;;;;;;24.20;15.13;;;;;;;;;;5021640;28;20057;-43
2022/04/17 14:09:39;;;;;;;4.13;2.60;;;;;;;;;;5022552;28;20021;-41
2022/04/17 14:12:09;;;;;;;11.30;6.38;;;;;;;;;;5021270;28;20029;-42
2022/04/17 14:14:39;;;;;;;17.52;9.35;;;;;;;;;;5021538;28;20044;-45
2022/04/17 14:17:07;;;;;;;16.35;7.72;;;;;;;;;;5023100;28;20104;-40
2022/04/17 14:19:34;;;;;;;10.15;6.10;;;;;;;;;;5021481;28;20025;-45
2022/04/17 14:22:00;;;;;;;9.13;3.95;;;;;;;;;;5028973;28;20033;-45
2022/04/17 14:24:26;;;;;;;13.95;6.82;;;;;;;;;;5033640;28;21449;-42
2022/04/17 14:26:52;;;;;;;6.60;3.45;;;;;;;;;;5031798;28;20040;-44
2022/04/17 14:29:19;;;;;;;9.98;4.93;;;;;;;;;;5027724;28;20066;-43
2022/04/17 14:31:45;;;;;;;14.45;7.90;;;;;;;;;;5030364;28;20076;-45
2022/04/17 14:34:11;;;;;;;13.20;7.60;;;;;;;;;;5030026;28;20734;-45
2022/04/17 14:36:37;;;;;;;12.93;5.78;;;;;;;;;;5032037;28;20029;-46
2022/04/17 14:39:04;;;;;;;13.15;7.38;;;;;;;;;;5028804;28;20351;-48
2022/04/17 14:41:30;;;;;;;19.55;10.35;;;;;;;;;;5030439;28;20021;-44
2022/04/17 14:43:56;;;;;;;32.90;16.70;;;;;;;;;;5031956;28;20029;-41
2022/04/17 14:46:22;;;;;;;59.35;32.17;;;;;;;;;;5029427;28;20037;-39
2022/04/17 14:48:49;;;;;;;11.38;7.18;;;;;;;;;;5030663;28;20516;-40
2022/04/17 14:51:15;;;;;;;7.65;4.38;;;;;;;;;;5031724;28;20112;-42
2022/04/17 14:53:42;;;;;;;10.77;3.35;;;;;;;;;;5030601;28;20091;-43